createdAt,value
2023-12-11T00:01:48.056Z,100457.81
2023-12-11T00:04:52.745Z,100454.13
2023-12-11T00:07:57.981Z,100448.88
2023-12-11T00:11:04.060Z,100445.81
2023-12-11T00:14:08.605Z,100437.34
2023-12-11T00:17:12.342Z,100436.00
2023-12-11T00:20:18.302Z,100439.38
2023-12-11T00:23:25.638Z,100427.22
2023-12-11T00:27:08.661Z,100427.00
2023-12-11T00:30:13.469Z,100424.16
2023-12-11T00:33:19.354Z,100414.84
2023-12-11T00:36:22.771Z,100410.63
2023-12-11T00:39:29.206Z,100407.03
2023-12-11T00:42:33.027Z,100401.66
2023-12-11T00:45:36.106Z,100398.00
2023-12-11T00:48:44.821Z,100407.69
2023-12-11T00:51:54.645Z,100391.44
2023-12-11T00:54:58.365Z,100408.31
2023-12-11T00:58:02.343Z,100407.78
2023-12-11T01:01:06.407Z,100399.59
2023-12-11T01:04:10.119Z,100395.31
2023-12-11T01:07:13.539Z,100399.03
2023-12-11T01:10:16.679Z,100395.53
2023-12-11T01:13:24.107Z,100390.59
2023-12-11T01:16:28.655Z,100382.91
2023-12-11T01:19:32.827Z,100388.91
2023-12-11T01:22:38.808Z,100382.75
2023-12-11T01:26:18.059Z,100389.69
2023-12-11T01:33:40.564Z,100386.53
2023-12-11T01:36:44.947Z,100377.47
2023-12-11T01:39:48.329Z,100385.44
2023-12-11T01:43:04.272Z,100378.16
2023-12-11T01:46:19.719Z,100375.31
2023-12-11T01:49:28.605Z,100366.37
2023-12-11T01:53:04.675Z,100354.38
2023-12-11T01:56:09.875Z,100347.50
2023-12-11T01:59:15.022Z,100353.53
2023-12-11T02:02:21.527Z,100346.78
2023-12-11T02:05:25.570Z,100339.06
2023-12-11T02:08:32.975Z,100339.88
2023-12-11T02:11:36.754Z,100332.97
2023-12-11T02:14:40.615Z,100338.09
2023-12-11T02:17:44.485Z,100328.31
2023-12-11T02:20:52.184Z,100320.44
2023-12-11T02:24:03.334Z,100329.56
2023-12-11T02:27:10.979Z,100329.34
2023-12-11T02:30:15.090Z,100319.19
2023-12-11T02:33:20.176Z,100312.34
2023-12-11T02:36:24.853Z,100324.50
2023-12-11T02:39:28.046Z,100326.41
2023-12-11T02:42:34.669Z,100325.34
2023-12-11T02:45:40.640Z,100320.66
2023-12-11T02:48:43.955Z,100313.84
2023-12-11T02:51:47.048Z,100296.56
2023-12-11T02:54:57.918Z,100286.44
2023-12-11T02:58:04.358Z,100275.31
2023-12-11T03:01:08.060Z,100275.50
2023-12-11T03:04:12.960Z,100269.31
2023-12-11T03:07:21.695Z,100274.41
2023-12-11T03:10:25.008Z,100259.38
2023-12-11T03:13:29.070Z,100261.97
2023-12-11T03:16:32.479Z,100277.13
2023-12-11T03:19:36.181Z,100273.81
2023-12-11T03:22:41.567Z,100267.09
2023-12-11T03:25:45.100Z,100254.19
2023-12-11T03:28:48.598Z,100263.97
2023-12-11T03:31:53.907Z,100262.34
2023-12-11T03:34:56.914Z,100257.03
2023-12-11T03:38:03.643Z,100236.78
2023-12-11T03:41:10.948Z,100261.00
2023-12-11T03:44:15.275Z,100251.25
2023-12-11T03:47:25.757Z,100267.37
2023-12-11T03:50:33.014Z,100270.13
2023-12-11T03:53:37.311Z,100270.13
2023-12-11T03:57:15.986Z,100260.09
2023-12-11T04:00:39.635Z,100256.72
2023-12-11T04:03:50.258Z,100267.91
2023-12-11T04:06:53.783Z,100278.22
2023-12-11T04:09:57.875Z,100286.97
2023-12-11T04:13:02.805Z,100299.00
2023-12-11T04:16:12.193Z,100278.38
2023-12-11T04:19:15.698Z,100288.72
2023-12-11T04:22:22.291Z,100288.78
2023-12-11T04:25:25.127Z,100284.56
2023-12-11T04:28:29.455Z,100270.56
2023-12-11T04:31:35.201Z,100261.44
2023-12-11T04:34:39.350Z,100249.50
2023-12-11T04:37:42.518Z,100253.91
2023-12-11T04:40:53.500Z,100250.69
2023-12-11T04:44:00.918Z,100248.97
2023-12-11T04:47:07.164Z,100250.31
2023-12-11T04:50:14.376Z,100232.75
2023-12-11T04:53:22.080Z,100226.34
2023-12-11T04:56:25.614Z,100226.19
2023-12-11T04:59:29.387Z,100229.50
2023-12-11T05:02:34.934Z,100226.91
2023-12-11T05:05:42.654Z,100232.28
2023-12-11T05:08:47.369Z,100224.22
2023-12-11T05:11:53.036Z,100237.69
2023-12-11T05:14:56.756Z,100255.78
2023-12-11T05:18:00.962Z,100253.28
2023-12-11T05:21:10.415Z,100254.91
2023-12-11T05:24:19.958Z,100256.50
2023-12-11T05:27:25.950Z,100238.66
2023-12-11T05:30:30.341Z,100228.91
2023-12-11T05:33:33.963Z,100224.69
2023-12-11T05:36:37.831Z,100234.97
2023-12-11T05:39:47.349Z,100238.13
2023-12-11T05:43:02.068Z,100254.53
2023-12-11T05:46:10.234Z,100252.75
2023-12-11T05:49:13.759Z,100237.47
2023-12-11T05:52:16.317Z,100220.59
2023-12-11T05:55:20.999Z,100203.41
2023-12-11T05:58:24.691Z,100194.50
2023-12-11T06:01:28.657Z,100189.97
2023-12-11T06:04:38.211Z,100189.72
2023-12-11T06:07:43.170Z,100210.81
2023-12-11T06:10:46.866Z,100206.53
2023-12-11T06:13:51.888Z,100224.47
2023-12-11T06:16:59.876Z,100240.97
2023-12-11T06:20:22.837Z,100234.16
2023-12-11T06:23:29.543Z,100236.41
2023-12-11T06:26:35.453Z,100233.59
2023-12-11T06:29:40.255Z,100260.44
2023-12-11T06:32:47.255Z,100260.31
2023-12-11T06:35:50.932Z,100290.38
2023-12-11T06:38:57.099Z,100299.78
2023-12-11T06:42:22.463Z,100296.72
2023-12-11T06:45:25.322Z,100278.66
2023-12-11T06:48:32.894Z,100248.50
2023-12-11T06:51:40.068Z,100245.13
2023-12-11T06:55:15.625Z,100229.31
2023-12-11T06:58:22.265Z,100233.84
2023-12-11T07:01:32.254Z,100228.84
2023-12-11T07:04:36.733Z,100232.19
2023-12-11T07:07:41.357Z,100249.28
2023-12-11T07:10:47.561Z,100240.53
2023-12-11T07:14:24.974Z,100220.97
2023-12-11T07:17:34.379Z,100223.50
2023-12-11T07:20:43.618Z,100221.19
2023-12-11T07:23:49.899Z,100225.78
2023-12-11T07:27:25.640Z,100236.13
2023-12-11T07:30:30.957Z,100253.00
2023-12-11T07:33:34.905Z,100237.59
2023-12-11T07:36:39.898Z,100229.63
2023-12-11T07:40:04.156Z,100208.84
2023-12-11T07:43:09.478Z,100234.47
2023-12-11T07:46:23.233Z,100254.84
2023-12-11T07:49:27.796Z,100253.22
2023-12-11T07:52:32.083Z,100242.50
2023-12-11T07:55:37.230Z,100239.09
2023-12-11T07:58:44.017Z,100232.56
2023-12-11T08:02:16.748Z,100235.84
2023-12-11T08:05:46.332Z,100204.72
2023-12-11T08:09:29.401Z,100214.66
2023-12-11T08:13:04.755Z,100225.56
2023-12-11T08:16:41.013Z,100230.63
2023-12-11T08:20:13.255Z,100204.75
2023-12-11T08:23:45.490Z,100173.84
2023-12-11T08:27:20.501Z,100176.78
2023-12-11T08:30:57.817Z,100168.72
2023-12-11T08:34:38.800Z,100157.84
2023-12-11T08:38:18.444Z,100133.88
2023-12-11T08:41:52.491Z,100104.19
2023-12-11T08:45:27.753Z,100087.34
2023-12-11T08:48:57.056Z,100095.78
2023-12-11T08:52:13.819Z,100108.78
2023-12-11T08:55:34.176Z,100123.47
2023-12-11T08:59:13.006Z,100133.69
2023-12-11T09:02:55.462Z,100150.69
2023-12-11T09:06:25.749Z,100167.78
2023-12-11T09:09:59.160Z,100161.19
2023-12-11T09:13:29.638Z,100143.59
2023-12-11T09:16:57.407Z,100140.22
2023-12-11T09:20:31.118Z,100117.72
2023-12-11T09:23:47.394Z,100117.31
2023-12-11T09:27:37.204Z,100112.25
2023-12-11T09:31:00.859Z,100130.56
2023-12-11T09:34:40.205Z,100130.34
2023-12-11T09:37:47.885Z,100128.69
2023-12-11T09:41:15.601Z,100122.88
2023-12-11T09:44:49.154Z,100124.25
2023-12-11T09:48:15.298Z,100123.47
2023-12-11T09:51:47.108Z,100121.06
2023-12-11T09:55:07.967Z,100119.53
2023-12-11T09:58:50.906Z,100115.53
2023-12-11T10:02:19.836Z,100109.91
2023-12-11T10:06:18.122Z,100115.50
2023-12-11T10:09:50.297Z,100104.63
2023-12-11T10:12:56.330Z,100114.72
2023-12-11T10:16:37.182Z,100106.88
2023-12-11T10:20:20.177Z,100106.88
2023-12-11T10:23:48.542Z,100092.81
2023-12-11T10:27:47.081Z,100083.78
2023-12-11T10:30:57.948Z,100073.72
2023-12-11T10:34:06.912Z,100084.16
2023-12-11T10:37:15.580Z,100087.59
2023-12-11T10:40:22.115Z,100076.28
2023-12-11T10:43:55.358Z,100073.25
2023-12-11T10:47:04.429Z,100064.66
2023-12-11T10:50:11.295Z,100055.13
2023-12-11T10:53:17.189Z,100043.06
2023-12-11T10:56:20.497Z,100032.34
2023-12-11T10:59:25.711Z,100030.47
2023-12-11T11:02:38.574Z,100035.75
2023-12-11T11:05:42.782Z,100053.06
2023-12-11T11:08:56.283Z,100066.81
2023-12-11T11:12:57.539Z,100055.69
2023-12-11T11:16:04.940Z,100049.22
2023-12-11T11:19:10.897Z,100050.03
2023-12-11T11:22:27.356Z,100043.75
2023-12-11T11:25:40.686Z,100025.59
2023-12-11T11:28:52.279Z,100010.59
2023-12-11T11:32:19.269Z,100007.63
2023-12-11T11:35:51.684Z,99993.41
2023-12-11T11:38:58.296Z,99980.81
2023-12-11T11:42:09.100Z,99968.75
2023-12-11T11:45:32.481Z,99956.00
2023-12-11T11:48:43.242Z,99947.37
2023-12-11T11:51:48.243Z,99952.59
2023-12-11T11:54:53.383Z,99971.03
2023-12-11T11:58:15.700Z,99972.50
2023-12-11T12:01:19.137Z,99961.06
2023-12-11T12:04:30.835Z,99965.34
2023-12-11T12:07:40.635Z,99960.72
2023-12-11T12:10:47.715Z,99966.16
2023-12-11T12:13:50.791Z,99952.59
2023-12-11T12:16:55.110Z,99966.47
2023-12-11T12:20:00.202Z,99982.91
2023-12-11T12:23:08.343Z,100000.81
2023-12-11T12:26:11.385Z,100004.16
2023-12-11T12:29:17.794Z,100002.59
2023-12-11T12:32:40.899Z,99996.31
2023-12-11T12:35:46.121Z,99983.28
2023-12-11T12:38:51.536Z,99981.56
2023-12-11T12:41:57.660Z,99990.44
2023-12-11T12:45:01.771Z,99974.66
2023-12-11T12:48:06.741Z,99965.69
2023-12-11T12:51:16.146Z,99976.94
2023-12-11T12:54:23.051Z,99976.09
2023-12-11T12:57:37.830Z,99968.59
2023-12-11T13:00:43.865Z,99957.72
2023-12-11T13:03:49.595Z,99953.72
2023-12-11T13:06:53.256Z,99945.91
2023-12-11T13:10:19.202Z,99947.66
2023-12-11T13:13:29.279Z,99954.97
2023-12-11T13:16:33.172Z,99948.28
2023-12-11T13:19:40.897Z,99946.66
2023-12-11T13:22:43.878Z,99959.88
2023-12-11T13:25:51.552Z,99962.44
2023-12-11T13:28:55.911Z,99970.69
2023-12-11T13:31:59.729Z,99985.31
2023-12-11T13:35:05.849Z,99988.63
2023-12-11T13:38:30.475Z,99997.19
2023-12-11T13:41:38.497Z,99993.94
2023-12-11T13:44:45.439Z,100000.06
2023-12-11T13:48:32.364Z,99999.66
2023-12-11T13:51:36.625Z,100005.06
2023-12-11T13:55:19.424Z,99989.56
2023-12-11T13:58:23.999Z,99988.06
2023-12-11T14:01:33.310Z,99986.50
2023-12-11T14:04:41.761Z,99980.78
2023-12-11T14:08:19.073Z,99968.88
2023-12-11T14:11:57.455Z,99977.06
2023-12-11T14:15:02.334Z,99981.88
2023-12-11T14:18:31.407Z,99981.41
2023-12-11T14:21:36.687Z,99981.41
2023-12-11T14:24:59.661Z,99971.78
2023-12-11T14:28:06.506Z,99971.63
2023-12-11T14:31:13.142Z,99970.09
2023-12-11T14:34:42.878Z,99977.16
2023-12-11T14:38:19.135Z,99986.16
2023-12-11T14:41:47.798Z,99979.78
2023-12-11T14:44:59.068Z,99964.13
2023-12-11T14:48:05.005Z,99943.25
2023-12-11T14:51:08.455Z,99947.25
2023-12-11T14:54:12.797Z,99943.66
2023-12-11T14:57:21.229Z,99947.09
2023-12-11T15:00:47.604Z,99935.25
2023-12-11T15:03:54.070Z,99909.97
2023-12-11T15:07:18.240Z,99911.38
2023-12-11T15:10:25.436Z,99914.78
2023-12-11T15:13:32.999Z,99927.22
2023-12-11T15:16:46.201Z,99921.59
2023-12-11T15:20:27.980Z,99931.63
2023-12-11T15:23:34.427Z,99951.50
2023-12-11T15:27:06.806Z,99948.44
2023-12-11T15:30:29.831Z,99948.88
2023-12-11T15:33:33.087Z,99946.69
2023-12-11T15:36:45.754Z,99937.66
2023-12-11T15:39:51.809Z,99943.66
2023-12-11T15:43:16.987Z,99960.12
2023-12-11T15:46:21.151Z,99938.88
2023-12-11T15:49:49.014Z,99924.81
2023-12-11T15:52:58.677Z,99925.22
2023-12-11T15:56:03.853Z,99938.44
2023-12-11T16:00:06.735Z,99931.66
2023-12-11T16:03:14.392Z,99942.88
2023-12-11T16:10:28.032Z,99960.72
2023-12-11T16:13:37.259Z,99943.28
2023-12-11T16:16:43.809Z,99948.09
2023-12-11T16:19:51.170Z,99949.09
2023-12-11T16:22:54.859Z,99939.69
2023-12-11T16:26:03.396Z,99938.06
2023-12-11T16:29:36.014Z,99934.84
2023-12-11T16:32:41.704Z,99938.84
2023-12-11T16:35:45.043Z,99941.06
2023-12-11T16:38:48.627Z,99938.06
2023-12-11T16:41:53.152Z,99915.97
2023-12-11T16:45:01.534Z,99910.56
2023-12-11T16:48:37.720Z,99928.44
2023-12-11T16:51:41.785Z,99917.37
2023-12-11T16:54:44.875Z,99925.03
2023-12-11T16:57:49.396Z,99922.03
2023-12-11T17:00:52.160Z,99925.41
2023-12-11T17:03:57.149Z,99939.25
2023-12-11T17:07:02.555Z,99931.44
2023-12-11T17:10:08.415Z,99928.44
2023-12-11T17:13:12.206Z,99922.22
2023-12-11T17:16:18.039Z,99920.38
2023-12-11T17:19:21.660Z,99917.22
2023-12-11T17:22:29.709Z,99929.62
2023-12-11T17:25:34.775Z,99939.25
2023-12-11T17:28:38.872Z,99942.06
2023-12-11T17:31:43.672Z,99954.50
2023-12-11T17:34:49.973Z,99960.12
2023-12-11T17:37:52.677Z,99968.56
2023-12-11T17:40:56.336Z,99984.00
2023-12-11T17:44:00.051Z,99984.59
2023-12-11T17:47:05.253Z,99972.56
2023-12-11T17:50:15.676Z,99966.97
2023-12-11T17:53:18.908Z,99964.56
2023-12-11T17:56:24.466Z,99972.16
2023-12-11T17:59:30.603Z,99958.31
2023-12-11T18:02:36.651Z,99957.72
2023-12-11T18:05:40.660Z,99956.91
2023-12-11T18:08:48.683Z,99958.50
2023-12-11T18:11:52.015Z,99950.69
2023-12-11T18:14:55.122Z,99941.66
2023-12-11T18:17:58.530Z,99949.69
2023-12-11T18:21:05.763Z,99934.84
2023-12-11T18:24:09.127Z,99930.81
2023-12-11T18:27:35.946Z,99922.41
2023-12-11T18:30:39.514Z,99923.19
2023-12-11T18:33:45.801Z,99943.25
2023-12-11T18:36:51.561Z,99948.03
2023-12-11T18:39:56.717Z,99935.81
2023-12-11T18:43:00.036Z,99938.22
2023-12-11T18:46:03.624Z,99938.00
2023-12-11T18:49:13.793Z,99948.84
2023-12-11T18:52:46.871Z,99937.59
2023-12-11T18:56:00.311Z,99950.84
2023-12-11T18:59:03.617Z,99942.03
2023-12-11T19:02:29.712Z,99940.25
2023-12-11T19:05:55.472Z,99937.66
2023-12-11T19:09:00.610Z,99928.81
2023-12-11T19:12:05.614Z,99922.59
2023-12-11T19:15:10.459Z,99924.81
2023-12-11T19:18:18.967Z,99920.59
2023-12-11T19:21:42.959Z,99929.59
2023-12-11T19:24:46.177Z,99929.22
2023-12-11T19:27:50.545Z,99921.59
2023-12-11T19:30:53.576Z,99906.94
2023-12-11T19:34:00.080Z,99887.91
2023-12-11T19:37:05.745Z,99867.06
2023-12-11T19:40:10.521Z,99871.87
2023-12-11T19:43:16.751Z,99886.28
2023-12-11T19:46:25.912Z,99883.88
2023-12-11T19:49:33.440Z,99875.84
2023-12-11T19:52:36.971Z,99883.84
2023-12-11T19:55:41.465Z,99880.03
2023-12-11T19:59:08.499Z,99865.41
2023-12-11T20:02:12.151Z,99864.19
2023-12-11T20:05:35.466Z,99878.19
2023-12-11T20:08:40.955Z,99875.78
2023-12-11T20:11:45.920Z,99885.44
2023-12-11T20:15:27.001Z,99863.41
2023-12-11T20:18:30.679Z,99872.25
2023-12-11T20:21:33.207Z,99872.66
2023-12-11T20:24:36.460Z,99861.81
2023-12-11T20:27:41.337Z,99864.81
2023-12-11T20:30:45.303Z,99871.63
2023-12-11T20:33:51.812Z,99874.62
2023-12-11T20:36:55.691Z,99877.03
2023-12-11T20:39:59.064Z,99873.44
2023-12-11T20:43:24.935Z,99866.81
2023-12-11T20:46:32.769Z,99873.63
2023-12-11T20:49:43.826Z,99878.22
2023-12-11T20:53:10.611Z,99897.50
2023-12-11T20:56:24.982Z,99906.69
2023-12-11T20:59:48.637Z,99907.91
2023-12-11T21:02:54.075Z,99914.12
2023-12-11T21:06:01.981Z,99901.72
2023-12-11T21:09:18.255Z,99871.06
2023-12-11T21:12:22.016Z,99891.09
2023-12-11T21:15:47.423Z,99877.25
2023-12-11T21:19:20.336Z,99893.28
2023-12-11T21:22:31.083Z,99892.28
2023-12-11T21:25:33.966Z,99917.09
2023-12-11T21:28:37.761Z,99922.69
2023-12-11T21:31:43.354Z,99917.47
2023-12-11T21:34:49.337Z,99923.06
2023-12-11T21:37:57.145Z,99922.28
2023-12-11T21:41:00.360Z,99931.28
2023-12-11T21:44:04.898Z,99929.91
2023-12-11T21:47:09.762Z,99923.25
2023-12-11T21:50:33.735Z,99933.69
2023-12-11T21:53:37.265Z,99952.72
2023-12-11T21:56:42.494Z,99962.34
2023-12-11T21:59:48.424Z,99970.37
2023-12-11T22:03:00.978Z,99956.78
2023-12-11T22:06:05.335Z,99932.59
2023-12-11T22:09:24.686Z,99928.78
2023-12-11T22:12:27.818Z,99933.16
2023-12-11T22:15:33.711Z,99946.41
2023-12-11T22:18:39.433Z,99946.22
2023-12-11T22:21:42.180Z,99946.44
2023-12-11T22:24:48.043Z,99932.41
2023-12-11T22:27:57.318Z,99945.84
2023-12-11T22:31:05.473Z,99962.87
2023-12-11T22:34:12.015Z,99956.88
2023-12-11T22:37:17.417Z,99956.06
2023-12-11T22:40:22.334Z,99960.88
2023-12-11T22:43:28.887Z,99966.09
2023-12-11T22:46:34.836Z,99972.50
2023-12-11T22:49:38.476Z,99969.28
2023-12-11T22:52:44.167Z,99968.50
2023-12-11T22:55:51.348Z,99964.69
2023-12-11T22:58:54.156Z,99972.88
2023-12-11T23:02:04.631Z,99974.91
2023-12-11T23:05:31.746Z,99969.91
2023-12-11T23:08:35.819Z,99965.28
2023-12-11T23:11:39.043Z,99965.69
2023-12-11T23:14:42.228Z,99962.50
2023-12-11T23:17:48.465Z,99971.91
2023-12-11T23:20:58.313Z,99980.75
2023-12-11T23:24:06.500Z,99974.72
2023-12-11T23:27:12.995Z,99977.53
2023-12-11T23:30:19.382Z,99988.13
2023-12-11T23:33:22.712Z,99988.16
2023-12-11T23:36:28.476Z,99996.13
2023-12-11T23:40:00.706Z,99999.53
2023-12-11T23:43:03.346Z,100009.56
2023-12-11T23:46:30.547Z,99989.50
2023-12-11T23:49:53.668Z,99975.12
2023-12-11T23:52:59.218Z,99980.13
2023-12-11T23:56:02.577Z,99981.72
2023-12-11T23:59:10.143Z,99980.53
